sensor_id;sensor_type;location;lat;lon;timestamp;P1;durP1;ratioP1;P2;durP2;ratioP2
31910;SDS011;18457;52.432;16.914;2023-02-15T00:02:00;158.00;;;67.20;;
31910;SDS011;18457;52.432;16.914;2023-02-15T00:04:33;162.40;;;69.40;;
31910;SDS011;18457;52.432;16.914;2023-02-15T00:07:17;166.90;;;69.50;;
31910;SDS011;18457;52.432;16.914;2023-02-15T00:09:50;162.30;;;68.40;;
31910;SDS011;18457;52.432;16.914;2023-02-15T00:12:22;150.00;;;65.40;;
31910;SDS011;18457;52.432;16.914;2023-02-15T00:14:54;143.70;;;65.10;;
31910;SDS011;18457;52.432;16.914;2023-02-15T00:17:28;146.90;;;64.60;;
31910;SDS011;18457;52.432;16.914;2023-02-15T00:20:00;163.60;;;66.70;;
31910;SDS011;18457;52.432;16.914;2023-02-15T00:22:32;155.10;;;64.70;;
31910;SDS011;18457;52.432;16.914;2023-02-15T00:25:04;112.30;;;49.50;;
31910;SDS011;18457;52.432;16.914;2023-02-15T00:30:08;147.20;;;61.80;;
31910;SDS011;18457;52.432;16.914;2023-02-15T00:32:40;148.20;;;62.90;;
31910;SDS011;18457;52.432;16.914;2023-02-15T00:35:13;150.70;;;67.10;;
31910;SDS011;18457;52.432;16.914;2023-02-15T00:37:45;170.50;;;67.30;;
31910;SDS011;18457;52.432;16.914;2023-02-15T00:40:18;144.50;;;65.50;;
31910;SDS011;18457;52.432;16.914;2023-02-15T00:42:50;160.10;;;69.40;;
31910;SDS011;18457;52.432;16.914;2023-02-15T00:45:22;183.70;;;72.50;;
31910;SDS011;18457;52.432;16.914;2023-02-15T00:47:54;169.10;;;73.40;;
31910;SDS011;18457;52.432;16.914;2023-02-15T00:50:25;160.40;;;70.00;;
31910;SDS011;18457;52.432;16.914;2023-02-15T00:52:57;180.30;;;73.70;;
31910;SDS011;18457;52.432;16.914;2023-02-15T00:55:29;164.80;;;71.00;;
31910;SDS011;18457;52.432;16.914;2023-02-15T00:58:01;174.20;;;73.90;;
31910;SDS011;18457;52.432;16.914;2023-02-15T01:00:33;186.60;;;73.60;;
31910;SDS011;18457;52.432;16.914;2023-02-15T01:03:05;163.30;;;70.20;;
31910;SDS011;18457;52.432;16.914;2023-02-15T01:05:38;178.60;;;75.40;;
31910;SDS011;18457;52.432;16.914;2023-02-15T01:08:10;172.50;;;73.90;;
31910;SDS011;18457;52.432;16.914;2023-02-15T01:10:42;161.60;;;72.90;;
31910;SDS011;18457;52.432;16.914;2023-02-15T01:13:16;181.90;;;72.90;;
31910;SDS011;18457;52.432;16.914;2023-02-15T01:15:53;173.20;;;77.00;;
31910;SDS011;18457;52.432;16.914;2023-02-15T01:18:25;172.20;;;71.60;;
31910;SDS011;18457;52.432;16.914;2023-02-15T01:20:57;176.00;;;71.80;;
31910;SDS011;18457;52.432;16.914;2023-02-15T01:23:29;164.80;;;73.80;;
31910;SDS011;18457;52.432;16.914;2023-02-15T01:26:02;167.30;;;70.20;;
31910;SDS011;18457;52.432;16.914;2023-02-15T01:28:35;168.80;;;72.50;;
31910;SDS011;18457;52.432;16.914;2023-02-15T01:31:07;169.70;;;71.60;;
31910;SDS011;18457;52.432;16.914;2023-02-15T01:33:41;176.50;;;75.70;;
31910;SDS011;18457;52.432;16.914;2023-02-15T01:36:13;127.50;;;54.80;;
31910;SDS011;18457;52.432;16.914;2023-02-15T01:38:46;167.10;;;71.90;;
31910;SDS011;18457;52.432;16.914;2023-02-15T01:41:19;177.00;;;70.50;;
31910;SDS011;18457;52.432;16.914;2023-02-15T01:43:53;167.00;;;72.00;;
31910;SDS011;18457;52.432;16.914;2023-02-15T01:46:28;173.10;;;72.10;;
31910;SDS011;18457;52.432;16.914;2023-02-15T01:49:08;161.00;;;67.10;;
31910;SDS011;18457;52.432;16.914;2023-02-15T01:51:44;166.90;;;69.30;;
31910;SDS011;18457;52.432;16.914;2023-02-15T01:54:19;163.70;;;70.20;;
31910;SDS011;18457;52.432;16.914;2023-02-15T01:56:57;164.20;;;69.40;;
31910;SDS011;18457;52.432;16.914;2023-02-15T01:59:32;157.00;;;66.40;;
31910;SDS011;18457;52.432;16.914;2023-02-15T02:02:07;157.80;;;65.10;;
31910;SDS011;18457;52.432;16.914;2023-02-15T02:04:45;161.80;;;65.30;;
31910;SDS011;18457;52.432;16.914;2023-02-15T02:07:21;167.60;;;67.30;;
31910;SDS011;18457;52.432;16.914;2023-02-15T02:09:56;158.20;;;67.50;;
31910;SDS011;18457;52.432;16.914;2023-02-15T02:12:35;166.00;;;69.90;;
31910;SDS011;18457;52.432;16.914;2023-02-15T02:15:10;174.30;;;67.10;;
31910;SDS011;18457;52.432;16.914;2023-02-15T02:20:27;166.80;;;67.70;;
31910;SDS011;18457;52.432;16.914;2023-02-15T02:23:21;167.70;;;65.60;;
31910;SDS011;18457;52.432;16.914;2023-02-15T02:26:09;165.80;;;65.50;;
31910;SDS011;18457;52.432;16.914;2023-02-15T02:32:04;175.80;;;68.90;;
31910;SDS011;18457;52.432;16.914;2023-02-15T02:35:02;168.40;;;67.20;;
31910;SDS011;18457;52.432;16.914;2023-02-15T02:37:43;159.60;;;65.70;;
31910;SDS011;18457;52.432;16.914;2023-02-15T02:40:23;166.90;;;65.60;;
31910;SDS011;18457;52.432;16.914;2023-02-15T02:43:01;163.80;;;66.60;;
31910;SDS011;18457;52.432;16.914;2023-02-15T02:45:40;169.80;;;68.20;;
31910;SDS011;18457;52.432;16.914;2023-02-15T02:48:19;157.80;;;67.50;;
31910;SDS011;18457;52.432;16.914;2023-02-15T02:50:55;169.10;;;70.70;;
31910;SDS011;18457;52.432;16.914;2023-02-15T02:53:28;176.40;;;74.40;;
31910;SDS011;18457;52.432;16.914;2023-02-15T02:56:05;165.60;;;72.70;;
31910;SDS011;18457;52.432;16.914;2023-02-15T02:58:42;175.00;;;72.80;;
31910;SDS011;18457;52.432;16.914;2023-02-15T03:01:19;173.40;;;73.90;;
31910;SDS011;18457;52.432;16.914;2023-02-15T03:03:56;187.20;;;75.40;;
31910;SDS011;18457;52.432;16.914;2023-02-15T03:06:33;170.80;;;71.20;;
31910;SDS011;18457;52.432;16.914;2023-02-15T03:09:11;165.10;;;70.90;;
31910;SDS011;18457;52.432;16.914;2023-02-15T03:11:47;185.30;;;73.60;;
31910;SDS011;18457;52.432;16.914;2023-02-15T03:14:20;171.30;;;72.50;;
31910;SDS011;18457;52.432;16.914;2023-02-15T03:16:52;178.70;;;71.00;;
31910;SDS011;18457;52.432;16.914;2023-02-15T03:19:27;170.80;;;69.90;;
31910;SDS011;18457;52.432;16.914;2023-02-15T03:22:04;159.70;;;67.30;;
31910;SDS011;18457;52.432;16.914;2023-02-15T03:24:41;161.30;;;70.80;;
31910;SDS011;18457;52.432;16.914;2023-02-15T03:27:24;159.80;;;66.70;;
31910;SDS011;18457;52.432;16.914;2023-02-15T03:30:03;179.30;;;67.40;;
31910;SDS011;18457;52.432;16.914;2023-02-15T03:32:39;153.40;;;62.60;;
31910;SDS011;18457;52.432;16.914;2023-02-15T03:35:13;164.60;;;68.10;;
31910;SDS011;18457;52.432;16.914;2023-02-15T03:37:47;168.90;;;71.60;;
31910;SDS011;18457;52.432;16.914;2023-02-15T03:40:22;160.90;;;64.40;;
31910;SDS011;18457;52.432;16.914;2023-02-15T03:43:27;156.50;;;65.40;;
31910;SDS011;18457;52.432;16.914;2023-02-15T03:46:07;148.80;;;62.40;;
31910;SDS011;18457;52.432;16.914;2023-02-15T03:48:43;156.60;;;61.10;;
31910;SDS011;18457;52.432;16.914;2023-02-15T03:51:20;157.00;;;63.70;;
31910;SDS011;18457;52.432;16.914;2023-02-15T03:54:08;161.40;;;62.50;;
31910;SDS011;18457;52.432;16.914;2023-02-15T03:56:42;148.80;;;60.50;;
31910;SDS011;18457;52.432;16.914;2023-02-15T03:59:34;153.30;;;59.40;;
31910;SDS011;18457;52.432;16.914;2023-02-15T04:02:40;141.90;;;56.50;;
31910;SDS011;18457;52.432;16.914;2023-02-15T04:05:19;133.70;;;56.90;;
31910;SDS011;18457;52.432;16.914;2023-02-15T04:07:51;143.00;;;58.30;;
31910;SDS011;18457;52.432;16.914;2023-02-15T04:10:23;136.80;;;56.60;;
31910;SDS011;18457;52.432;16.914;2023-02-15T04:13:13;138.40;;;55.80;;
31910;SDS011;18457;52.432;16.914;2023-02-15T04:15:44;141.10;;;56.00;;
31910;SDS011;18457;52.432;16.914;2023-02-15T04:18:39;139.40;;;59.10;;
31910;SDS011;18457;52.432;16.914;2023-02-15T04:21:30;138.60;;;53.00;;
31910;SDS011;18457;52.432;16.914;2023-02-15T04:24:20;130.30;;;52.30;;
31910;SDS011;18457;52.432;16.914;2023-02-15T04:27:09;135.10;;;55.70;;
31910;SDS011;18457;52.432;16.914;2023-02-15T04:32:13;139.40;;;55.50;;
31910;SDS011;18457;52.432;16.914;2023-02-15T04:34:44;137.40;;;55.50;;
31910;SDS011;18457;52.432;16.914;2023-02-15T04:37:17;129.80;;;55.00;;
31910;SDS011;18457;52.432;16.914;2023-02-15T04:39:48;140.30;;;54.10;;
31910;SDS011;18457;52.432;16.914;2023-02-15T04:42:20;132.80;;;54.90;;
31910;SDS011;18457;52.432;16.914;2023-02-15T04:44:52;135.20;;;56.80;;
31910;SDS011;18457;52.432;16.914;2023-02-15T04:47:24;138.90;;;54.20;;
31910;SDS011;18457;52.432;16.914;2023-02-15T04:49:56;126.90;;;53.40;;
31910;SDS011;18457;52.432;16.914;2023-02-15T04:52:28;127.60;;;52.60;;
31910;SDS011;18457;52.432;16.914;2023-02-15T04:55:01;126.40;;;54.20;;
31910;SDS011;18457;52.432;16.914;2023-02-15T04:57:34;126.00;;;53.20;;
31910;SDS011;18457;52.432;16.914;2023-02-15T05:00:07;132.90;;;54.10;;
31910;SDS011;18457;52.432;16.914;2023-02-15T05:02:40;140.10;;;54.70;;
31910;SDS011;18457;52.432;16.914;2023-02-15T05:05:12;93.10;;;39.30;;
31910;SDS011;18457;52.432;16.914;2023-02-15T05:07:44;124.20;;;50.40;;
31910;SDS011;18457;52.432;16.914;2023-02-15T05:10:16;136.60;;;52.70;;
31910;SDS011;18457;52.432;16.914;2023-02-15T05:12:48;140.70;;;53.40;;
31910;SDS011;18457;52.432;16.914;2023-02-15T05:15:19;132.10;;;53.70;;
31910;SDS011;18457;52.432;16.914;2023-02-15T05:17:51;142.50;;;52.90;;
31910;SDS011;18457;52.432;16.914;2023-02-15T05:20:23;134.40;;;53.40;;
31910;SDS011;18457;52.432;16.914;2023-02-15T05:22:55;126.50;;;52.20;;
31910;SDS011;18457;52.432;16.914;2023-02-15T05:25:27;119.50;;;49.80;;
31910;SDS011;18457;52.432;16.914;2023-02-15T05:28:17;118.60;;;48.20;;
31910;SDS011;18457;52.432;16.914;2023-02-15T05:30:57;116.90;;;49.60;;
31910;SDS011;18457;52.432;16.914;2023-02-15T05:33:33;127.90;;;51.80;;
31910;SDS011;18457;52.432;16.914;2023-02-15T05:36:06;128.70;;;50.90;;
31910;SDS011;18457;52.432;16.914;2023-02-15T05:38:39;123.60;;;48.90;;
31910;SDS011;18457;52.432;16.914;2023-02-15T05:41:11;122.20;;;48.80;;
31910;SDS011;18457;52.432;16.914;2023-02-15T05:43:42;118.00;;;50.40;;
31910;SDS011;18457;52.432;16.914;2023-02-15T05:46:14;83.20;;;35.20;;
31910;SDS011;18457;52.432;16.914;2023-02-15T05:48:46;129.60;;;50.10;;
31910;SDS011;18457;52.432;16.914;2023-02-15T05:51:18;109.20;;;47.70;;
31910;SDS011;18457;52.432;16.914;2023-02-15T05:53:50;92.50;;;38.30;;
31910;SDS011;18457;52.432;16.914;2023-02-15T05:56:22;122.90;;;47.70;;
31910;SDS011;18457;52.432;16.914;2023-02-15T05:58:54;115.40;;;47.20;;
31910;SDS011;18457;52.432;16.914;2023-02-15T06:01:26;124.80;;;51.10;;
31910;SDS011;18457;52.432;16.914;2023-02-15T06:03:58;117.00;;;47.90;;
31910;SDS011;18457;52.432;16.914;2023-02-15T06:06:30;122.50;;;50.10;;
31910;SDS011;18457;52.432;16.914;2023-02-15T06:09:03;113.10;;;47.10;;
31910;SDS011;18457;52.432;16.914;2023-02-15T06:11:35;117.40;;;51.30;;
31910;SDS011;18457;52.432;16.914;2023-02-15T06:14:07;99.80;;;40.60;;
31910;SDS011;18457;52.432;16.914;2023-02-15T06:16:38;129.10;;;56.00;;
31910;SDS011;18457;52.432;16.914;2023-02-15T06:21:41;135.40;;;52.90;;
31910;SDS011;18457;52.432;16.914;2023-02-15T06:24:13;119.60;;;51.20;;
31910;SDS011;18457;52.432;16.914;2023-02-15T06:26:45;124.20;;;50.50;;
31910;SDS011;18457;52.432;16.914;2023-02-15T06:29:17;117.60;;;47.80;;
31910;SDS011;18457;52.432;16.914;2023-02-15T06:31:49;113.50;;;47.30;;
31910;SDS011;18457;52.432;16.914;2023-02-15T06:34:21;122.60;;;48.90;;
31910;SDS011;18457;52.432;16.914;2023-02-15T06:36:53;119.60;;;48.90;;
31910;SDS011;18457;52.432;16.914;2023-02-15T06:39:25;114.00;;;47.60;;
31910;SDS011;18457;52.432;16.914;2023-02-15T06:41:57;110.00;;;46.70;;
31910;SDS011;18457;52.432;16.914;2023-02-15T06:44:29;126.90;;;48.90;;
31910;SDS011;18457;52.432;16.914;2023-02-15T06:47:00;110.40;;;49.10;;
31910;SDS011;18457;52.432;16.914;2023-02-15T06:49:33;119.90;;;48.50;;
31910;SDS011;18457;52.432;16.914;2023-02-15T06:52:05;109.10;;;46.30;;
31910;SDS011;18457;52.432;16.914;2023-02-15T06:54:37;116.10;;;47.30;;
31910;SDS011;18457;52.432;16.914;2023-02-15T06:57:08;115.20;;;48.70;;
31910;SDS011;18457;52.432;16.914;2023-02-15T06:59:40;119.10;;;45.60;;
31910;SDS011;18457;52.432;16.914;2023-02-15T07:02:12;115.30;;;47.90;;
31910;SDS011;18457;52.432;16.914;2023-02-15T07:07:15;108.70;;;44.60;;
31910;SDS011;18457;52.432;16.914;2023-02-15T07:09:46;111.10;;;44.60;;
31910;SDS011;18457;52.432;16.914;2023-02-15T07:12:18;115.20;;;45.00;;
31910;SDS011;18457;52.432;16.914;2023-02-15T07:15:08;101.70;;;44.40;;
31910;SDS011;18457;52.432;16.914;2023-02-15T07:17:41;108.00;;;45.40;;
31910;SDS011;18457;52.432;16.914;2023-02-15T07:20:14;106.90;;;45.90;;
31910;SDS011;18457;52.432;16.914;2023-02-15T07:22:48;106.80;;;45.40;;
31910;SDS011;18457;52.432;16.914;2023-02-15T07:27:56;104.50;;;43.90;;
31910;SDS011;18457;52.432;16.914;2023-02-15T07:30:28;119.00;;;47.70;;
31910;SDS011;18457;52.432;16.914;2023-02-15T07:33:01;122.40;;;49.50;;
31910;SDS011;18457;52.432;16.914;2023-02-15T07:35:51;118.90;;;46.40;;
31910;SDS011;18457;52.432;16.914;2023-02-15T07:38:26;108.80;;;47.30;;
31910;SDS011;18457;52.432;16.914;2023-02-15T07:41:00;115.40;;;45.80;;
31910;SDS011;18457;52.432;16.914;2023-02-15T07:43:34;106.80;;;45.10;;
31910;SDS011;18457;52.432;16.914;2023-02-15T07:46:09;110.00;;;47.60;;
31910;SDS011;18457;52.432;16.914;2023-02-15T07:48:43;109.50;;;46.60;;
31910;SDS011;18457;52.432;16.914;2023-02-15T07:51:16;115.40;;;46.00;;
31910;SDS011;18457;52.432;16.914;2023-02-15T07:53:48;110.10;;;47.40;;
31910;SDS011;18457;52.432;16.914;2023-02-15T07:56:22;114.70;;;48.20;;
31910;SDS011;18457;52.432;16.914;2023-02-15T07:58:54;109.80;;;46.90;;
31910;SDS011;18457;52.432;16.914;2023-02-15T08:01:29;111.80;;;45.40;;
31910;SDS011;18457;52.432;16.914;2023-02-15T08:04:03;99.70;;;44.30;;
31910;SDS011;18457;52.432;16.914;2023-02-15T08:06:36;104.40;;;44.50;;
31910;SDS011;18457;52.432;16.914;2023-02-15T08:09:09;101.30;;;44.50;;
31910;SDS011;18457;52.432;16.914;2023-02-15T08:11:41;96.20;;;42.90;;
31910;SDS011;18457;52.432;16.914;2023-02-15T08:14:14;98.90;;;43.50;;
31910;SDS011;18457;52.432;16.914;2023-02-15T08:16:48;102.80;;;44.20;;
31910;SDS011;18457;52.432;16.914;2023-02-15T08:19:21;102.90;;;42.10;;
31910;SDS011;18457;52.432;16.914;2023-02-15T08:21:55;105.90;;;45.30;;
31910;SDS011;18457;52.432;16.914;2023-02-15T08:24:30;98.90;;;41.30;;
31910;SDS011;18457;52.432;16.914;2023-02-15T08:27:03;105.60;;;44.50;;
31910;SDS011;18457;52.432;16.914;2023-02-15T08:29:37;95.50;;;42.80;;
31910;SDS011;18457;52.432;16.914;2023-02-15T08:32:11;95.00;;;41.80;;
31910;SDS011;18457;52.432;16.914;2023-02-15T08:34:43;105.30;;;42.30;;
31910;SDS011;18457;52.432;16.914;2023-02-15T08:37:16;106.80;;;43.70;;
31910;SDS011;18457;52.432;16.914;2023-02-15T08:39:48;102.70;;;42.90;;
31910;SDS011;18457;52.432;16.914;2023-02-15T08:42:21;94.50;;;42.00;;
31910;SDS011;18457;52.432;16.914;2023-02-15T08:44:53;95.10;;;40.40;;
31910;SDS011;18457;52.432;16.914;2023-02-15T08:47:25;90.80;;;38.10;;
31910;SDS011;18457;52.432;16.914;2023-02-15T08:49:57;96.40;;;40.50;;
31910;SDS011;18457;52.432;16.914;2023-02-15T08:52:29;73.90;;;31.10;;
31910;SDS011;18457;52.432;16.914;2023-02-15T08:55:01;64.40;;;29.30;;
31910;SDS011;18457;52.432;16.914;2023-02-15T08:57:34;87.60;;;38.60;;
31910;SDS011;18457;52.432;16.914;2023-02-15T09:00:08;88.30;;;38.70;;
31910;SDS011;18457;52.432;16.914;2023-02-15T09:02:41;79.30;;;34.30;;
31910;SDS011;18457;52.432;16.914;2023-02-15T09:05:13;81.00;;;35.80;;
31910;SDS011;18457;52.432;16.914;2023-02-15T09:07:45;74.40;;;34.90;;
31910;SDS011;18457;52.432;16.914;2023-02-15T09:10:17;90.20;;;38.20;;
31910;SDS011;18457;52.432;16.914;2023-02-15T09:12:50;77.20;;;37.30;;
31910;SDS011;18457;52.432;16.914;2023-02-15T09:15:22;91.30;;;36.10;;
31910;SDS011;18457;52.432;16.914;2023-02-15T09:17:54;65.50;;;28.20;;
31910;SDS011;18457;52.432;16.914;2023-02-15T09:20:28;85.20;;;35.20;;
31910;SDS011;18457;52.432;16.914;2023-02-15T09:23:00;84.40;;;35.80;;
31910;SDS011;18457;52.432;16.914;2023-02-15T09:25:32;82.90;;;36.00;;
31910;SDS011;18457;52.432;16.914;2023-02-15T09:28:06;89.00;;;37.10;;
31910;SDS011;18457;52.432;16.914;2023-02-15T09:30:39;84.10;;;34.90;;
31910;SDS011;18457;52.432;16.914;2023-02-15T09:33:12;83.60;;;35.10;;
31910;SDS011;18457;52.432;16.914;2023-02-15T09:35:43;80.10;;;33.90;;
31910;SDS011;18457;52.432;16.914;2023-02-15T09:38:15;90.10;;;37.30;;
31910;SDS011;18457;52.432;16.914;2023-02-15T09:40:49;79.80;;;35.80;;
31910;SDS011;18457;52.432;16.914;2023-02-15T09:46:12;91.10;;;38.00;;
31910;SDS011;18457;52.432;16.914;2023-02-15T09:48:58;85.70;;;37.10;;
31910;SDS011;18457;52.432;16.914;2023-02-15T09:54:48;92.20;;;36.50;;
31910;SDS011;18457;52.432;16.914;2023-02-15T09:57:30;87.50;;;35.60;;
31910;SDS011;18457;52.432;16.914;2023-02-15T10:00:12;84.90;;;35.00;;
31910;SDS011;18457;52.432;16.914;2023-02-15T10:02:56;81.60;;;35.50;;
31910;SDS011;18457;52.432;16.914;2023-02-15T10:05:44;81.40;;;35.10;;
31910;SDS011;18457;52.432;16.914;2023-02-15T10:08:31;84.40;;;36.20;;
31910;SDS011;18457;52.432;16.914;2023-02-15T10:11:19;79.20;;;33.10;;
31910;SDS011;18457;52.432;16.914;2023-02-15T10:14:18;76.10;;;34.50;;
31910;SDS011;18457;52.432;16.914;2023-02-15T10:17:12;73.40;;;32.80;;
31910;SDS011;18457;52.432;16.914;2023-02-15T10:19:54;73.10;;;32.80;;
31910;SDS011;18457;52.432;16.914;2023-02-15T10:22:37;84.40;;;34.70;;
31910;SDS011;18457;52.432;16.914;2023-02-15T10:25:19;77.20;;;32.10;;
31910;SDS011;18457;52.432;16.914;2023-02-15T10:28:14;80.40;;;32.90;;
31910;SDS011;18457;52.432;16.914;2023-02-15T10:30:49;67.20;;;31.20;;
31910;SDS011;18457;52.432;16.914;2023-02-15T10:33:31;80.90;;;32.70;;
31910;SDS011;18457;52.432;16.914;2023-02-15T10:36:15;72.90;;;33.40;;
31910;SDS011;18457;52.432;16.914;2023-02-15T10:38:58;73.20;;;30.50;;
31910;SDS011;18457;52.432;16.914;2023-02-15T10:41:40;72.30;;;31.60;;
31910;SDS011;18457;52.432;16.914;2023-02-15T10:44:22;74.70;;;31.60;;
31910;SDS011;18457;52.432;16.914;2023-02-15T10:47:17;76.80;;;31.60;;
31910;SDS011;18457;52.432;16.914;2023-02-15T10:50:05;67.90;;;29.10;;
31910;SDS011;18457;52.432;16.914;2023-02-15T10:52:50;75.80;;;31.30;;
31910;SDS011;18457;52.432;16.914;2023-02-15T10:55:34;72.80;;;31.90;;
31910;SDS011;18457;52.432;16.914;2023-02-15T10:58:20;69.00;;;31.50;;
31910;SDS011;18457;52.432;16.914;2023-02-15T11:01:01;72.50;;;29.60;;
31910;SDS011;18457;52.432;16.914;2023-02-15T11:03:43;75.80;;;30.40;;
31910;SDS011;18457;52.432;16.914;2023-02-15T11:06:35;74.20;;;31.40;;
31910;SDS011;18457;52.432;16.914;2023-02-15T11:09:13;74.60;;;30.70;;
31910;SDS011;18457;52.432;16.914;2023-02-15T11:11:48;75.30;;;32.80;;
31910;SDS011;18457;52.432;16.914;2023-02-15T11:14:22;73.40;;;31.70;;
31910;SDS011;18457;52.432;16.914;2023-02-15T11:17:04;70.30;;;31.20;;
31910;SDS011;18457;52.432;16.914;2023-02-15T11:19:41;72.60;;;32.60;;
31910;SDS011;18457;52.432;16.914;2023-02-15T11:22:21;72.50;;;31.60;;
31910;SDS011;18457;52.432;16.914;2023-02-15T11:27:27;72.30;;;31.30;;
31910;SDS011;18457;52.432;16.914;2023-02-15T11:30:05;75.60;;;32.50;;
31910;SDS011;18457;52.432;16.914;2023-02-15T11:32:41;72.80;;;32.10;;
31910;SDS011;18457;52.432;16.914;2023-02-15T11:35:19;70.20;;;31.80;;
31910;SDS011;18457;52.432;16.914;2023-02-15T11:37:57;77.70;;;34.10;;
31910;SDS011;18457;52.432;16.914;2023-02-15T11:40:36;70.70;;;32.30;;
31910;SDS011;18457;52.432;16.914;2023-02-15T11:43:15;69.20;;;33.20;;
31910;SDS011;18457;52.432;16.914;2023-02-15T11:45:51;72.40;;;32.20;;
31910;SDS011;18457;52.432;16.914;2023-02-15T11:50:54;71.90;;;31.00;;
31910;SDS011;18457;52.432;16.914;2023-02-15T11:53:27;78.30;;;33.50;;
31910;SDS011;18457;52.432;16.914;2023-02-15T11:56:04;75.70;;;31.40;;
31910;SDS011;18457;52.432;16.914;2023-02-15T11:58:42;73.10;;;32.30;;
31910;SDS011;18457;52.432;16.914;2023-02-15T12:01:20;72.20;;;32.20;;
31910;SDS011;18457;52.432;16.914;2023-02-15T12:03:56;70.50;;;31.90;;
31910;SDS011;18457;52.432;16.914;2023-02-15T12:06:35;77.10;;;34.00;;
31910;SDS011;18457;52.432;16.914;2023-02-15T12:09:17;73.60;;;32.80;;
31910;SDS011;18457;52.432;16.914;2023-02-15T12:11:55;74.30;;;32.40;;
31910;SDS011;18457;52.432;16.914;2023-02-15T12:14:55;82.00;;;33.70;;
31910;SDS011;18457;52.432;16.914;2023-02-15T12:17:29;75.30;;;33.40;;
31910;SDS011;18457;52.432;16.914;2023-02-15T12:20:04;75.30;;;33.60;;
31910;SDS011;18457;52.432;16.914;2023-02-15T12:22:51;75.90;;;34.50;;
31910;SDS011;18457;52.432;16.914;2023-02-15T12:25:33;78.80;;;33.30;;
31910;SDS011;18457;52.432;16.914;2023-02-15T12:28:19;73.00;;;31.70;;
31910;SDS011;18457;52.432;16.914;2023-02-15T12:30:56;86.00;;;32.90;;
31910;SDS011;18457;52.432;16.914;2023-02-15T12:33:31;76.30;;;35.50;;
31910;SDS011;18457;52.432;16.914;2023-02-15T12:36:12;73.40;;;32.60;;
31910;SDS011;18457;52.432;16.914;2023-02-15T12:42:03;71.80;;;34.90;;
31910;SDS011;18457;52.432;16.914;2023-02-15T12:44:53;79.10;;;34.80;;
31910;SDS011;18457;52.432;16.914;2023-02-15T12:47:27;75.80;;;34.30;;
31910;SDS011;18457;52.432;16.914;2023-02-15T12:50:08;74.70;;;34.80;;
31910;SDS011;18457;52.432;16.914;2023-02-15T12:52:48;74.90;;;36.50;;
31910;SDS011;18457;52.432;16.914;2023-02-15T12:55:24;71.00;;;34.60;;
31910;SDS011;18457;52.432;16.914;2023-02-15T12:58:08;82.50;;;35.50;;
31910;SDS011;18457;52.432;16.914;2023-02-15T13:00:46;75.40;;;35.40;;
31910;SDS011;18457;52.432;16.914;2023-02-15T13:03:32;79.30;;;36.70;;
31910;SDS011;18457;52.432;16.914;2023-02-15T13:06:04;107.60;;;35.20;;
31910;SDS011;18457;52.432;16.914;2023-02-15T13:08:39;73.00;;;32.30;;
31910;SDS011;18457;52.432;16.914;2023-02-15T13:11:21;71.70;;;34.10;;
31910;SDS011;18457;52.432;16.914;2023-02-15T13:14:00;77.50;;;36.00;;
31910;SDS011;18457;52.432;16.914;2023-02-15T13:16:33;74.90;;;35.80;;
31910;SDS011;18457;52.432;16.914;2023-02-15T13:19:10;79.30;;;35.10;;
31910;SDS011;18457;52.432;16.914;2023-02-15T13:21:45;77.00;;;35.40;;
31910;SDS011;18457;52.432;16.914;2023-02-15T13:24:21;77.30;;;36.60;;
31910;SDS011;18457;52.432;16.914;2023-02-15T13:26:56;84.20;;;38.40;;
31910;SDS011;18457;52.432;16.914;2023-02-15T13:29:44;73.70;;;35.30;;
31910;SDS011;18457;52.432;16.914;2023-02-15T13:32:22;76.20;;;36.00;;
31910;SDS011;18457;52.432;16.914;2023-02-15T13:34:59;78.50;;;35.20;;
31910;SDS011;18457;52.432;16.914;2023-02-15T13:37:42;77.50;;;36.30;;
31910;SDS011;18457;52.432;16.914;2023-02-15T13:40:27;82.90;;;36.60;;
31910;SDS011;18457;52.432;16.914;2023-02-15T13:43:10;81.80;;;35.70;;
31910;SDS011;18457;52.432;16.914;2023-02-15T13:45:58;79.70;;;36.80;;
31910;SDS011;18457;52.432;16.914;2023-02-15T13:48:44;76.20;;;34.70;;
31910;SDS011;18457;52.432;16.914;2023-02-15T13:51:26;86.90;;;37.80;;
31910;SDS011;18457;52.432;16.914;2023-02-15T13:57:08;79.30;;;36.90;;
31910;SDS011;18457;52.432;16.914;2023-02-15T14:00:02;75.60;;;36.70;;
31910;SDS011;18457;52.432;16.914;2023-02-15T14:02:46;86.30;;;38.20;;
31910;SDS011;18457;52.432;16.914;2023-02-15T14:05:37;81.90;;;36.80;;
31910;SDS011;18457;52.432;16.914;2023-02-15T14:08:18;82.90;;;36.60;;
31910;SDS011;18457;52.432;16.914;2023-02-15T14:11:01;77.40;;;35.20;;
31910;SDS011;18457;52.432;16.914;2023-02-15T14:16:44;75.60;;;35.60;;
31910;SDS011;18457;52.432;16.914;2023-02-15T14:19:37;72.90;;;35.40;;
31910;SDS011;18457;52.432;16.914;2023-02-15T14:22:17;75.40;;;34.40;;
31910;SDS011;18457;52.432;16.914;2023-02-15T14:24:59;80.30;;;36.00;;
31910;SDS011;18457;52.432;16.914;2023-02-15T14:27:45;80.60;;;36.40;;
31910;SDS011;18457;52.432;16.914;2023-02-15T14:30:25;78.50;;;36.30;;
31910;SDS011;18457;52.432;16.914;2023-02-15T14:33:01;81.60;;;36.00;;
31910;SDS011;18457;52.432;16.914;2023-02-15T14:35:38;79.30;;;36.30;;
31910;SDS011;18457;52.432;16.914;2023-02-15T14:38:13;79.60;;;37.30;;
31910;SDS011;18457;52.432;16.914;2023-02-15T14:40:53;82.80;;;36.90;;
31910;SDS011;18457;52.432;16.914;2023-02-15T14:43:40;84.60;;;37.70;;
31910;SDS011;18457;52.432;16.914;2023-02-15T14:46:21;82.90;;;35.30;;
31910;SDS011;18457;52.432;16.914;2023-02-15T14:48:58;77.20;;;35.20;;
31910;SDS011;18457;52.432;16.914;2023-02-15T14:57:27;76.60;;;34.00;;
31910;SDS011;18457;52.432;16.914;2023-02-15T15:00:21;83.50;;;36.50;;
31910;SDS011;18457;52.432;16.914;2023-02-15T15:03:03;81.60;;;35.60;;
31910;SDS011;18457;52.432;16.914;2023-02-15T15:05:50;80.00;;;35.00;;
31910;SDS011;18457;52.432;16.914;2023-02-15T15:08:26;87.80;;;35.30;;
31910;SDS011;18457;52.432;16.914;2023-02-15T15:17:12;78.60;;;33.70;;
31910;SDS011;18457;52.432;16.914;2023-02-15T15:20:09;82.20;;;34.20;;
31910;SDS011;18457;52.432;16.914;2023-02-15T15:22:45;76.90;;;33.90;;
31910;SDS011;18457;52.432;16.914;2023-02-15T15:31:17;73.80;;;32.10;;
31910;SDS011;18457;52.432;16.914;2023-02-15T15:37:15;69.00;;;31.70;;
31910;SDS011;18457;52.432;16.914;2023-02-15T15:40:16;73.00;;;31.50;;
31910;SDS011;18457;52.432;16.914;2023-02-15T15:43:31;73.30;;;32.70;;
31910;SDS011;18457;52.432;16.914;2023-02-15T15:46:17;70.10;;;31.70;;
31910;SDS011;18457;52.432;16.914;2023-02-15T15:49:17;75.70;;;32.30;;
31910;SDS011;18457;52.432;16.914;2023-02-15T15:51:51;70.00;;;31.20;;
31910;SDS011;18457;52.432;16.914;2023-02-15T15:54:24;73.60;;;31.60;;
31910;SDS011;18457;52.432;16.914;2023-02-15T15:56:58;75.80;;;32.20;;
31910;SDS011;18457;52.432;16.914;2023-02-15T15:59:33;74.50;;;31.80;;